sensor_id;sensor_type;location;lat;lon;timestamp;P1;durP1;ratioP1;P2;durP2;ratioP2
20865;SDS011;10593;48.398;10.698;2022-12-07T00:01:28;4.50;;;4.10;;
20865;SDS011;10593;48.398;10.698;2022-12-07T00:03:59;4.50;;;4.10;;
20865;SDS011;10593;48.398;10.698;2022-12-07T00:06:34;4.27;;;3.97;;
20865;SDS011;10593;48.398;10.698;2022-12-07T00:09:06;4.40;;;4.10;;
20865;SDS011;10593;48.398;10.698;2022-12-07T00:11:36;4.10;;;3.80;;
20865;SDS011;10593;48.398;10.698;2022-12-07T00:14:05;4.23;;;3.93;;
20865;SDS011;10593;48.398;10.698;2022-12-07T00:16:34;4.97;;;4.47;;
20865;SDS011;10593;48.398;10.698;2022-12-07T00:19:01;5.00;;;4.60;;
20865;SDS011;10593;48.398;10.698;2022-12-07T00:21:29;5.00;;;4.60;;
20865;SDS011;10593;48.398;10.698;2022-12-07T00:24:00;4.63;;;4.23;;
20865;SDS011;10593;48.398;10.698;2022-12-07T00:26:28;4.23;;;3.93;;
20865;SDS011;10593;48.398;10.698;2022-12-07T00:29:01;4.20;;;3.90;;
20865;SDS011;10593;48.398;10.698;2022-12-07T00:31:48;5.10;;;4.60;;
20865;SDS011;10593;48.398;10.698;2022-12-07T00:34:15;5.13;;;4.67;;
20865;SDS011;10593;48.398;10.698;2022-12-07T00:36:43;4.70;;;4.30;;
20865;SDS011;10593;48.398;10.698;2022-12-07T00:39:09;4.67;;;4.27;;
20865;SDS011;10593;48.398;10.698;2022-12-07T00:41:35;4.00;;;3.70;;
20865;SDS011;10593;48.398;10.698;2022-12-07T00:44:00;4.97;;;4.57;;
20865;SDS011;10593;48.398;10.698;2022-12-07T00:46:26;4.37;;;4.07;;
20865;SDS011;10593;48.398;10.698;2022-12-07T00:48:52;5.10;;;4.70;;
20865;SDS011;10593;48.398;10.698;2022-12-07T00:51:19;4.87;;;4.47;;
20865;SDS011;10593;48.398;10.698;2022-12-07T00:53:47;4.73;;;4.33;;
20865;SDS011;10593;48.398;10.698;2022-12-07T00:56:18;4.93;;;4.53;;
20865;SDS011;10593;48.398;10.698;2022-12-07T00:58:54;4.60;;;4.20;;
20865;SDS011;10593;48.398;10.698;2022-12-07T01:01:23;4.83;;;4.43;;
20865;SDS011;10593;48.398;10.698;2022-12-07T01:03:51;4.40;;;4.00;;
20865;SDS011;10593;48.398;10.698;2022-12-07T01:06:18;4.77;;;4.37;;
20865;SDS011;10593;48.398;10.698;2022-12-07T01:08:46;4.70;;;4.30;;
20865;SDS011;10593;48.398;10.698;2022-12-07T01:11:14;4.83;;;4.43;;
20865;SDS011;10593;48.398;10.698;2022-12-07T01:13:43;4.33;;;4.03;;
20865;SDS011;10593;48.398;10.698;2022-12-07T01:16:11;4.83;;;4.43;;
20865;SDS011;10593;48.398;10.698;2022-12-07T01:18:40;4.60;;;4.20;;
20865;SDS011;10593;48.398;10.698;2022-12-07T01:23:36;4.73;;;4.20;;
20865;SDS011;10593;48.398;10.698;2022-12-07T01:26:04;5.00;;;3.97;;
20865;SDS011;10593;48.398;10.698;2022-12-07T01:28:32;4.70;;;4.30;;
20865;SDS011;10593;48.398;10.698;2022-12-07T01:30:59;4.33;;;4.03;;
20865;SDS011;10593;48.398;10.698;2022-12-07T01:33:33;4.20;;;3.80;;
20865;SDS011;10593;48.398;10.698;2022-12-07T01:36:02;4.40;;;4.10;;
20865;SDS011;10593;48.398;10.698;2022-12-07T01:38:51;4.17;;;3.87;;
20865;SDS011;10593;48.398;10.698;2022-12-07T01:41:22;4.17;;;3.87;;
20865;SDS011;10593;48.398;10.698;2022-12-07T01:47:03;4.60;;;4.20;;
20865;SDS011;10593;48.398;10.698;2022-12-07T01:49:33;4.30;;;4.00;;
20865;SDS011;10593;48.398;10.698;2022-12-07T01:52:16;4.23;;;3.90;;
20865;SDS011;10593;48.398;10.698;2022-12-07T01:54:50;3.70;;;3.43;;
20865;SDS011;10593;48.398;10.698;2022-12-07T01:57:24;4.63;;;4.23;;
20865;SDS011;10593;48.398;10.698;2022-12-07T01:59:50;4.33;;;3.93;;
20865;SDS011;10593;48.398;10.698;2022-12-07T02:05:21;3.97;;;3.67;;
20865;SDS011;10593;48.398;10.698;2022-12-07T02:07:49;3.77;;;3.47;;
20865;SDS011;10593;48.398;10.698;2022-12-07T02:10:20;4.10;;;3.80;;
20865;SDS011;10593;48.398;10.698;2022-12-07T02:12:54;4.10;;;3.80;;
20865;SDS011;10593;48.398;10.698;2022-12-07T02:15:27;4.00;;;3.70;;
20865;SDS011;10593;48.398;10.698;2022-12-07T02:21:39;4.00;;;3.70;;
20865;SDS011;10593;48.398;10.698;2022-12-07T02:27:46;3.80;;;3.43;;
20865;SDS011;10593;48.398;10.698;2022-12-07T02:30:21;4.53;;;4.13;;
20865;SDS011;10593;48.398;10.698;2022-12-07T02:33:03;4.60;;;4.20;;
20865;SDS011;10593;48.398;10.698;2022-12-07T02:35:46;4.60;;;4.20;;
20865;SDS011;10593;48.398;10.698;2022-12-07T02:38:35;4.77;;;4.37;;
20865;SDS011;10593;48.398;10.698;2022-12-07T02:41:12;4.27;;;3.97;;
20865;SDS011;10593;48.398;10.698;2022-12-07T02:43:57;4.03;;;3.73;;
20865;SDS011;10593;48.398;10.698;2022-12-07T02:46:29;4.33;;;4.03;;
20865;SDS011;10593;48.398;10.698;2022-12-07T02:49:02;4.13;;;3.83;;
20865;SDS011;10593;48.398;10.698;2022-12-07T02:51:30;4.37;;;3.97;;
20865;SDS011;10593;48.398;10.698;2022-12-07T02:53:58;4.63;;;4.23;;
20865;SDS011;10593;48.398;10.698;2022-12-07T02:56:34;3.97;;;3.67;;
20865;SDS011;10593;48.398;10.698;2022-12-07T03:05:08;4.67;;;4.33;;
20865;SDS011;10593;48.398;10.698;2022-12-07T03:08:20;4.13;;;3.83;;
20865;SDS011;10593;48.398;10.698;2022-12-07T03:11:07;4.87;;;4.47;;
20865;SDS011;10593;48.398;10.698;2022-12-07T03:16:25;4.23;;;3.93;;
20865;SDS011;10593;48.398;10.698;2022-12-07T03:19:15;4.40;;;4.10;;
20865;SDS011;10593;48.398;10.698;2022-12-07T03:21:46;4.20;;;3.90;;
20865;SDS011;10593;48.398;10.698;2022-12-07T03:24:21;4.10;;;3.80;;
20865;SDS011;10593;48.398;10.698;2022-12-07T03:27:01;4.13;;;3.73;;
20865;SDS011;10593;48.398;10.698;2022-12-07T03:29:35;4.03;;;3.73;;
20865;SDS011;10593;48.398;10.698;2022-12-07T03:32:11;4.07;;;3.77;;
20865;SDS011;10593;48.398;10.698;2022-12-07T03:34:56;4.23;;;3.27;;
20865;SDS011;10593;48.398;10.698;2022-12-07T03:37:36;3.53;;;3.33;;
20865;SDS011;10593;48.398;10.698;2022-12-07T03:40:14;3.97;;;3.67;;
20865;SDS011;10593;48.398;10.698;2022-12-07T03:43:08;4.23;;;3.83;;
20865;SDS011;10593;48.398;10.698;2022-12-07T03:45:39;4.03;;;3.73;;
20865;SDS011;10593;48.398;10.698;2022-12-07T03:48:24;4.23;;;3.93;;
20865;SDS011;10593;48.398;10.698;2022-12-07T03:54:26;4.37;;;4.07;;
20865;SDS011;10593;48.398;10.698;2022-12-07T03:56:59;4.30;;;4.00;;
20865;SDS011;10593;48.398;10.698;2022-12-07T03:59:29;5.30;;;4.90;;
20865;SDS011;10593;48.398;10.698;2022-12-07T04:01:56;5.20;;;4.80;;
20865;SDS011;10593;48.398;10.698;2022-12-07T04:04:27;5.33;;;4.83;;
20865;SDS011;10593;48.398;10.698;2022-12-07T04:06:53;5.03;;;4.63;;
20865;SDS011;10593;48.398;10.698;2022-12-07T04:09:19;4.90;;;4.50;;
20865;SDS011;10593;48.398;10.698;2022-12-07T04:11:45;5.07;;;4.67;;
20865;SDS011;10593;48.398;10.698;2022-12-07T04:14:11;5.27;;;4.83;;
20865;SDS011;10593;48.398;10.698;2022-12-07T04:16:43;5.10;;;4.70;;
20865;SDS011;10593;48.398;10.698;2022-12-07T04:19:22;4.90;;;4.50;;
20865;SDS011;10593;48.398;10.698;2022-12-07T04:21:51;5.00;;;4.60;;
20865;SDS011;10593;48.398;10.698;2022-12-07T04:24:17;5.20;;;4.80;;
20865;SDS011;10593;48.398;10.698;2022-12-07T04:26:43;5.00;;;4.60;;
20865;SDS011;10593;48.398;10.698;2022-12-07T04:29:10;5.00;;;4.50;;
20865;SDS011;10593;48.398;10.698;2022-12-07T04:31:36;4.80;;;4.43;;
20865;SDS011;10593;48.398;10.698;2022-12-07T04:34:02;4.73;;;4.33;;
20865;SDS011;10593;48.398;10.698;2022-12-07T04:36:29;5.10;;;4.70;;
20865;SDS011;10593;48.398;10.698;2022-12-07T04:38:55;5.10;;;4.70;;
20865;SDS011;10593;48.398;10.698;2022-12-07T04:41:21;4.70;;;4.40;;
20865;SDS011;10593;48.398;10.698;2022-12-07T04:43:52;4.93;;;4.53;;
20865;SDS011;10593;48.398;10.698;2022-12-07T04:46:27;4.97;;;4.53;;
20865;SDS011;10593;48.398;10.698;2022-12-07T04:48:55;4.77;;;4.37;;
20865;SDS011;10593;48.398;10.698;2022-12-07T04:51:23;4.60;;;4.30;;
20865;SDS011;10593;48.398;10.698;2022-12-07T04:53:52;5.20;;;4.77;;
20865;SDS011;10593;48.398;10.698;2022-12-07T04:56:19;5.20;;;4.80;;
20865;SDS011;10593;48.398;10.698;2022-12-07T04:58:46;5.03;;;4.63;;
20865;SDS011;10593;48.398;10.698;2022-12-07T05:01:13;4.83;;;4.43;;
20865;SDS011;10593;48.398;10.698;2022-12-07T05:03:41;5.20;;;4.70;;
20865;SDS011;10593;48.398;10.698;2022-12-07T05:06:07;5.07;;;4.67;;
20865;SDS011;10593;48.398;10.698;2022-12-07T05:08:35;5.13;;;4.73;;
20865;SDS011;10593;48.398;10.698;2022-12-07T05:11:01;5.13;;;4.73;;
20865;SDS011;10593;48.398;10.698;2022-12-07T05:13:29;4.90;;;4.50;;
20865;SDS011;10593;48.398;10.698;2022-12-07T05:15:56;4.50;;;4.20;;
20865;SDS011;10593;48.398;10.698;2022-12-07T05:18:22;4.80;;;4.40;;
20865;SDS011;10593;48.398;10.698;2022-12-07T05:20:48;5.00;;;4.50;;
20865;SDS011;10593;48.398;10.698;2022-12-07T05:23:14;5.63;;;5.13;;
20865;SDS011;10593;48.398;10.698;2022-12-07T05:25:40;4.33;;;4.03;;
20865;SDS011;10593;48.398;10.698;2022-12-07T05:28:05;4.30;;;4.00;;
20865;SDS011;10593;48.398;10.698;2022-12-07T05:30:31;4.70;;;4.30;;
20865;SDS011;10593;48.398;10.698;2022-12-07T05:32:57;4.43;;;4.03;;
20865;SDS011;10593;48.398;10.698;2022-12-07T05:35:23;4.63;;;4.23;;
20865;SDS011;10593;48.398;10.698;2022-12-07T05:37:49;4.83;;;4.43;;
20865;SDS011;10593;48.398;10.698;2022-12-07T05:40:15;4.80;;;4.40;;
20865;SDS011;10593;48.398;10.698;2022-12-07T05:42:41;4.67;;;4.27;;
20865;SDS011;10593;48.398;10.698;2022-12-07T05:45:08;4.73;;;4.33;;
20865;SDS011;10593;48.398;10.698;2022-12-07T05:47:35;5.03;;;4.53;;
20865;SDS011;10593;48.398;10.698;2022-12-07T05:50:02;5.00;;;4.60;;
20865;SDS011;10593;48.398;10.698;2022-12-07T05:52:29;5.50;;;5.10;;
20865;SDS011;10593;48.398;10.698;2022-12-07T05:54:55;5.63;;;5.13;;
20865;SDS011;10593;48.398;10.698;2022-12-07T05:57:20;5.13;;;4.73;;
20865;SDS011;10593;48.398;10.698;2022-12-07T05:59:46;5.97;;;5.47;;
20865;SDS011;10593;48.398;10.698;2022-12-07T06:02:13;5.30;;;4.90;;
20865;SDS011;10593;48.398;10.698;2022-12-07T06:04:44;5.23;;;4.83;;
20865;SDS011;10593;48.398;10.698;2022-12-07T06:07:12;5.17;;;4.77;;
20865;SDS011;10593;48.398;10.698;2022-12-07T06:09:41;5.37;;;4.97;;
20865;SDS011;10593;48.398;10.698;2022-12-07T06:12:08;5.00;;;4.60;;
20865;SDS011;10593;48.398;10.698;2022-12-07T06:14:57;4.77;;;4.37;;
20865;SDS011;10593;48.398;10.698;2022-12-07T06:17:23;5.30;;;4.90;;
20865;SDS011;10593;48.398;10.698;2022-12-07T06:19:49;5.23;;;4.83;;
20865;SDS011;10593;48.398;10.698;2022-12-07T06:22:15;5.87;;;5.37;;
20865;SDS011;10593;48.398;10.698;2022-12-07T06:24:41;5.93;;;5.43;;
20865;SDS011;10593;48.398;10.698;2022-12-07T06:27:07;5.70;;;5.27;;
20865;SDS011;10593;48.398;10.698;2022-12-07T06:29:33;6.20;;;5.67;;
20865;SDS011;10593;48.398;10.698;2022-12-07T06:31:59;6.57;;;5.97;;
20865;SDS011;10593;48.398;10.698;2022-12-07T06:34:26;7.73;;;6.60;;
20865;SDS011;10593;48.398;10.698;2022-12-07T06:36:52;7.20;;;6.50;;
20865;SDS011;10593;48.398;10.698;2022-12-07T06:39:29;7.07;;;6.43;;
20865;SDS011;10593;48.398;10.698;2022-12-07T06:41:56;7.77;;;6.97;;
20865;SDS011;10593;48.398;10.698;2022-12-07T06:44:22;8.50;;;7.60;;
20865;SDS011;10593;48.398;10.698;2022-12-07T06:46:48;8.87;;;7.23;;
20865;SDS011;10593;48.398;10.698;2022-12-07T06:49:15;8.73;;;7.63;;
20865;SDS011;10593;48.398;10.698;2022-12-07T06:51:41;8.93;;;7.60;;
20865;SDS011;10593;48.398;10.698;2022-12-07T06:54:08;14.10;;;8.70;;
20865;SDS011;10593;48.398;10.698;2022-12-07T06:56:39;10.03;;;8.37;;
20865;SDS011;10593;48.398;10.698;2022-12-07T06:59:05;11.87;;;9.47;;
20865;SDS011;10593;48.398;10.698;2022-12-07T07:01:32;9.23;;;8.33;;
20865;SDS011;10593;48.398;10.698;2022-12-07T07:04:00;9.60;;;8.60;;
20865;SDS011;10593;48.398;10.698;2022-12-07T07:06:26;8.33;;;7.47;;
20865;SDS011;10593;48.398;10.698;2022-12-07T07:08:52;8.93;;;7.50;;
20865;SDS011;10593;48.398;10.698;2022-12-07T07:11:18;6.67;;;6.07;;
20865;SDS011;10593;48.398;10.698;2022-12-07T07:13:44;6.67;;;5.97;;
20865;SDS011;10593;48.398;10.698;2022-12-07T07:16:10;5.93;;;5.43;;
20865;SDS011;10593;48.398;10.698;2022-12-07T07:18:37;7.03;;;6.23;;
20865;SDS011;10593;48.398;10.698;2022-12-07T07:21:03;5.83;;;5.33;;
20865;SDS011;10593;48.398;10.698;2022-12-07T07:23:29;6.47;;;5.87;;
20865;SDS011;10593;48.398;10.698;2022-12-07T07:25:54;7.13;;;6.00;;
20865;SDS011;10593;48.398;10.698;2022-12-07T07:28:20;6.47;;;5.97;;
20865;SDS011;10593;48.398;10.698;2022-12-07T07:30:46;6.63;;;6.03;;
20865;SDS011;10593;48.398;10.698;2022-12-07T07:33:12;6.90;;;6.30;;
20865;SDS011;10593;48.398;10.698;2022-12-07T07:35:38;6.67;;;6.07;;
20865;SDS011;10593;48.398;10.698;2022-12-07T07:38:04;7.83;;;7.13;;
20865;SDS011;10593;48.398;10.698;2022-12-07T07:40:31;7.63;;;6.93;;
20865;SDS011;10593;48.398;10.698;2022-12-07T07:42:57;7.80;;;7.10;;
20865;SDS011;10593;48.398;10.698;2022-12-07T07:45:23;7.20;;;6.60;;
20865;SDS011;10593;48.398;10.698;2022-12-07T07:47:51;8.03;;;7.23;;
20865;SDS011;10593;48.398;10.698;2022-12-07T07:50:17;7.20;;;6.60;;
20865;SDS011;10593;48.398;10.698;2022-12-07T07:52:43;7.50;;;6.80;;
20865;SDS011;10593;48.398;10.698;2022-12-07T07:55:10;8.50;;;7.70;;
20865;SDS011;10593;48.398;10.698;2022-12-07T07:57:36;7.83;;;7.10;;
20865;SDS011;10593;48.398;10.698;2022-12-07T08:00:04;7.70;;;7.00;;
20865;SDS011;10593;48.398;10.698;2022-12-07T08:02:34;11.23;;;10.03;;
20865;SDS011;10593;48.398;10.698;2022-12-07T08:04:59;11.43;;;10.23;;
20865;SDS011;10593;48.398;10.698;2022-12-07T08:07:26;10.17;;;8.93;;
20865;SDS011;10593;48.398;10.698;2022-12-07T08:09:52;8.47;;;7.67;;
20865;SDS011;10593;48.398;10.698;2022-12-07T08:12:18;8.37;;;7.57;;
20865;SDS011;10593;48.398;10.698;2022-12-07T08:14:44;14.63;;;11.17;;
20865;SDS011;10593;48.398;10.698;2022-12-07T08:17:10;15.03;;;12.67;;
20865;SDS011;10593;48.398;10.698;2022-12-07T08:19:35;17.03;;;12.30;;
20865;SDS011;10593;48.398;10.698;2022-12-07T08:22:01;12.40;;;10.43;;
20865;SDS011;10593;48.398;10.698;2022-12-07T08:24:27;12.27;;;9.53;;
20865;SDS011;10593;48.398;10.698;2022-12-07T08:26:53;11.53;;;9.83;;
20865;SDS011;10593;48.398;10.698;2022-12-07T08:29:19;10.70;;;9.60;;
20865;SDS011;10593;48.398;10.698;2022-12-07T08:31:45;10.40;;;9.40;;
20865;SDS011;10593;48.398;10.698;2022-12-07T08:34:11;10.37;;;9.27;;
20865;SDS011;10593;48.398;10.698;2022-12-07T08:36:38;11.53;;;9.83;;
20865;SDS011;10593;48.398;10.698;2022-12-07T08:39:04;10.13;;;9.13;;
20865;SDS011;10593;48.398;10.698;2022-12-07T08:41:30;11.10;;;9.77;;
20865;SDS011;10593;48.398;10.698;2022-12-07T08:43:57;10.87;;;9.77;;
20865;SDS011;10593;48.398;10.698;2022-12-07T08:46:24;10.17;;;9.17;;
20865;SDS011;10593;48.398;10.698;2022-12-07T08:49:05;11.33;;;10.23;;
20865;SDS011;10593;48.398;10.698;2022-12-07T08:51:38;10.07;;;9.13;;
20865;SDS011;10593;48.398;10.698;2022-12-07T08:54:06;10.53;;;8.73;;
20865;SDS011;10593;48.398;10.698;2022-12-07T08:56:35;9.47;;;8.57;;
20865;SDS011;10593;48.398;10.698;2022-12-07T08:59:01;11.40;;;10.20;;
20865;SDS011;10593;48.398;10.698;2022-12-07T09:01:28;9.47;;;8.57;;
20865;SDS011;10593;48.398;10.698;2022-12-07T09:03:54;9.97;;;8.70;;
20865;SDS011;10593;48.398;10.698;2022-12-07T09:06:20;9.20;;;8.30;;
20865;SDS011;10593;48.398;10.698;2022-12-07T09:08:46;9.30;;;8.47;;
20865;SDS011;10593;48.398;10.698;2022-12-07T09:11:16;8.97;;;8.13;;
20865;SDS011;10593;48.398;10.698;2022-12-07T09:13:42;8.67;;;7.87;;
20865;SDS011;10593;48.398;10.698;2022-12-07T09:16:07;8.43;;;7.63;;
20865;SDS011;10593;48.398;10.698;2022-12-07T09:18:33;17.43;;;8.37;;
20865;SDS011;10593;48.398;10.698;2022-12-07T09:20:58;8.53;;;7.73;;
20865;SDS011;10593;48.398;10.698;2022-12-07T09:23:24;7.50;;;6.80;;
20865;SDS011;10593;48.398;10.698;2022-12-07T09:25:50;7.67;;;6.97;;
20865;SDS011;10593;48.398;10.698;2022-12-07T09:28:16;8.07;;;7.37;;
20865;SDS011;10593;48.398;10.698;2022-12-07T09:30:46;6.67;;;6.13;;
20865;SDS011;10593;48.398;10.698;2022-12-07T09:33:13;7.53;;;6.83;;
20865;SDS011;10593;48.398;10.698;2022-12-07T09:35:44;9.03;;;6.60;;
20865;SDS011;10593;48.398;10.698;2022-12-07T09:38:11;7.30;;;6.60;;
20865;SDS011;10593;48.398;10.698;2022-12-07T09:40:37;9.90;;;6.93;;
20865;SDS011;10593;48.398;10.698;2022-12-07T09:43:04;7.10;;;6.13;;
20865;SDS011;10593;48.398;10.698;2022-12-07T09:48:00;6.83;;;6.17;;
20865;SDS011;10593;48.398;10.698;2022-12-07T09:50:29;8.40;;;6.77;;
20865;SDS011;10593;48.398;10.698;2022-12-07T09:52:55;6.80;;;6.20;;
20865;SDS011;10593;48.398;10.698;2022-12-07T09:55:42;7.17;;;6.47;;
20865;SDS011;10593;48.398;10.698;2022-12-07T09:58:17;6.60;;;5.60;;
20865;SDS011;10593;48.398;10.698;2022-12-07T10:00:50;6.63;;;6.03;;
20865;SDS011;10593;48.398;10.698;2022-12-07T10:03:21;7.40;;;6.57;;
20865;SDS011;10593;48.398;10.698;2022-12-07T10:05:49;6.10;;;5.60;;
20865;SDS011;10593;48.398;10.698;2022-12-07T10:08:17;6.90;;;5.73;;
20865;SDS011;10593;48.398;10.698;2022-12-07T10:10:44;5.97;;;5.47;;
20865;SDS011;10593;48.398;10.698;2022-12-07T10:13:18;6.07;;;5.50;;
20865;SDS011;10593;48.398;10.698;2022-12-07T10:15:48;5.67;;;5.17;;
20865;SDS011;10593;48.398;10.698;2022-12-07T10:18:33;6.27;;;5.67;;
20865;SDS011;10593;48.398;10.698;2022-12-07T10:21:12;7.10;;;5.60;;
20865;SDS011;10593;48.398;10.698;2022-12-07T10:24:04;5.63;;;5.13;;
20865;SDS011;10593;48.398;10.698;2022-12-07T10:26:46;6.30;;;5.63;;
20865;SDS011;10593;48.398;10.698;2022-12-07T10:29:18;6.40;;;5.67;;
20865;SDS011;10593;48.398;10.698;2022-12-07T10:32:04;6.63;;;6.03;;
20865;SDS011;10593;48.398;10.698;2022-12-07T10:34:39;7.03;;;5.90;;
20865;SDS011;10593;48.398;10.698;2022-12-07T10:47:46;5.73;;;5.23;;
20865;SDS011;10593;48.398;10.698;2022-12-07T10:53:26;4.93;;;4.43;;
20865;SDS011;10593;48.398;10.698;2022-12-07T10:56:29;5.80;;;5.30;;
20865;SDS011;10593;48.398;10.698;2022-12-07T11:01:45;5.53;;;5.03;;
20865;SDS011;10593;48.398;10.698;2022-12-07T11:10:52;6.53;;;5.90;;
20865;SDS011;10593;48.398;10.698;2022-12-07T11:13:50;5.90;;;5.30;;
20865;SDS011;10593;48.398;10.698;2022-12-07T11:16:31;5.27;;;4.77;;
20865;SDS011;10593;48.398;10.698;2022-12-07T11:21:57;5.43;;;4.60;;
20865;SDS011;10593;48.398;10.698;2022-12-07T11:27:30;5.90;;;5.00;;
20865;SDS011;10593;48.398;10.698;2022-12-07T11:30:28;6.00;;;5.30;;
20865;SDS011;10593;48.398;10.698;2022-12-07T11:38:57;5.30;;;4.80;;
20865;SDS011;10593;48.398;10.698;2022-12-07T11:41:29;5.57;;;4.93;;
20865;SDS011;10593;48.398;10.698;2022-12-07T11:44:48;5.70;;;5.07;;
20865;SDS011;10593;48.398;10.698;2022-12-07T11:47:40;5.37;;;4.87;;
20865;SDS011;10593;48.398;10.698;2022-12-07T11:53:23;6.60;;;5.60;;
20865;SDS011;10593;48.398;10.698;2022-12-07T11:56:23;7.23;;;5.70;;
20865;SDS011;10593;48.398;10.698;2022-12-07T12:02:16;10.23;;;7.37;;
20865;SDS011;10593;48.398;10.698;2022-12-07T12:04:59;8.00;;;6.63;;
20865;SDS011;10593;48.398;10.698;2022-12-07T12:07:40;8.57;;;6.70;;
20865;SDS011;10593;48.398;10.698;2022-12-07T12:10:21;6.63;;;5.80;;
20865;SDS011;10593;48.398;10.698;2022-12-07T12:18:45;5.57;;;4.50;;
20865;SDS011;10593;48.398;10.698;2022-12-07T12:21:19;4.40;;;4.00;;
20865;SDS011;10593;48.398;10.698;2022-12-07T12:23:59;5.40;;;4.90;;
20865;SDS011;10593;48.398;10.698;2022-12-07T12:26:35;4.63;;;4.13;;
20865;SDS011;10593;48.398;10.698;2022-12-07T12:29:04;5.57;;;5.07;;
20865;SDS011;10593;48.398;10.698;2022-12-07T12:31:43;10.23;;;8.30;;
20865;SDS011;10593;48.398;10.698;2022-12-07T12:37:38;11.83;;;9.83;;
20865;SDS011;10593;48.398;10.698;2022-12-07T12:42:46;13.87;;;11.13;;
20865;SDS011;10593;48.398;10.698;2022-12-07T12:45:28;13.20;;;10.47;;
20865;SDS011;10593;48.398;10.698;2022-12-07T12:47:59;9.33;;;7.70;;
20865;SDS011;10593;48.398;10.698;2022-12-07T13:02:24;4.53;;;4.13;;
20865;SDS011;10593;48.398;10.698;2022-12-07T13:10:24;16.67;;;6.17;;
20865;SDS011;10593;48.398;10.698;2022-12-07T13:15:47;6.73;;;5.87;;
20865;SDS011;10593;48.398;10.698;2022-12-07T13:18:39;7.00;;;5.23;;
20865;SDS011;10593;48.398;10.698;2022-12-07T13:29:16;7.67;;;5.20;;
20865;SDS011;10593;48.398;10.698;2022-12-07T13:37:15;5.50;;;5.03;;
20865;SDS011;10593;48.398;10.698;2022-12-07T13:39:58;5.80;;;5.30;;
20865;SDS011;10593;48.398;10.698;2022-12-07T13:42:40;5.37;;;4.83;;
20865;SDS011;10593;48.398;10.698;2022-12-07T13:45:28;5.00;;;4.60;;
20865;SDS011;10593;48.398;10.698;2022-12-07T13:51:25;4.77;;;4.30;;
20865;SDS011;10593;48.398;10.698;2022-12-07T13:53:53;5.03;;;4.33;;
20865;SDS011;10593;48.398;10.698;2022-12-07T13:56:43;5.47;;;3.97;;
20865;SDS011;10593;48.398;10.698;2022-12-07T13:59:16;4.00;;;3.60;;
20865;SDS011;10593;48.398;10.698;2022-12-07T14:01:46;4.00;;;3.60;;
20865;SDS011;10593;48.398;10.698;2022-12-07T14:04:18;4.33;;;3.97;;
20865;SDS011;10593;48.398;10.698;2022-12-07T14:07:00;6.47;;;5.80;;
20865;SDS011;10593;48.398;10.698;2022-12-07T14:09:57;7.50;;;6.27;;
20865;SDS011;10593;48.398;10.698;2022-12-07T14:12:25;6.50;;;5.90;;
20865;SDS011;10593;48.398;10.698;2022-12-07T14:14:52;17.23;;;7.33;;
20865;SDS011;10593;48.398;10.698;2022-12-07T14:17:20;7.30;;;6.43;;
20865;SDS011;10593;48.398;10.698;2022-12-07T14:19:55;7.90;;;6.30;;
20865;SDS011;10593;48.398;10.698;2022-12-07T14:25:09;6.93;;;6.23;;
20865;SDS011;10593;48.398;10.698;2022-12-07T14:27:37;8.53;;;7.73;;
20865;SDS011;10593;48.398;10.698;2022-12-07T14:30:04;7.73;;;6.50;;
20865;SDS011;10593;48.398;10.698;2022-12-07T14:32:31;7.87;;;7.07;;
20865;SDS011;10593;48.398;10.698;2022-12-07T14:37:36;6.73;;;6.10;;
20865;SDS011;10593;48.398;10.698;2022-12-07T14:40:03;5.97;;;5.37;;
20865;SDS011;10593;48.398;10.698;2022-12-07T14:42:30;7.37;;;5.30;;
20865;SDS011;10593;48.398;10.698;2022-12-07T14:44:58;5.67;;;5.07;;
20865;SDS011;10593;48.398;10.698;2022-12-07T14:47:24;4.77;;;4.37;;
20865;SDS011;10593;48.398;10.698;2022-12-07T14:49:51;6.40;;;4.90;;
20865;SDS011;10593;48.398;10.698;2022-12-07T14:52:19;5.03;;;4.60;;
20865;SDS011;10593;48.398;10.698;2022-12-07T14:54:49;4.50;;;4.03;;
20865;SDS011;10593;48.398;10.698;2022-12-07T14:57:15;5.30;;;4.87;;
20865;SDS011;10593;48.398;10.698;2022-12-07T14:59:41;4.67;;;4.17;;
20865;SDS011;10593;48.398;10.698;2022-12-07T15:02:06;5.00;;;4.50;;
20865;SDS011;10593;48.398;10.698;2022-12-07T15:04:36;5.93;;;4.60;;
20865;SDS011;10593;48.398;10.698;2022-12-07T15:07:02;6.33;;;4.90;;
20865;SDS011;10593;48.398;10.698;2022-12-07T15:09:30;5.60;;;5.00;;
20865;SDS011;10593;48.398;10.698;2022-12-07T15:11:56;5.53;;;4.90;;
20865;SDS011;10593;48.398;10.698;2022-12-07T15:14:22;5.30;;;4.80;;
20865;SDS011;10593;48.398;10.698;2022-12-07T15:16:47;5.23;;;4.83;;
20865;SDS011;10593;48.398;10.698;2022-12-07T15:19:20;5.83;;;5.23;;
20865;SDS011;10593;48.398;10.698;2022-12-07T15:21:50;6.13;;;5.53;;
20865;SDS011;10593;48.398;10.698;2022-12-07T15:24:17;6.63;;;6.03;;
20865;SDS011;10593;48.398;10.698;2022-12-07T15:26:42;6.47;;;5.83;;
20865;SDS011;10593;48.398;10.698;2022-12-07T15:29:08;7.37;;;6.60;;
20865;SDS011;10593;48.398;10.698;2022-12-07T15:31:35;6.43;;;5.83;;
20865;SDS011;10593;48.398;10.698;2022-12-07T15:34:01;8.23;;;5.97;;
20865;SDS011;10593;48.398;10.698;2022-12-07T15:36:29;6.37;;;5.47;;
20865;SDS011;10593;48.398;10.698;2022-12-07T15:38:57;5.57;;;5.07;;
20865;SDS011;10593;48.398;10.698;2022-12-07T15:41:24;6.13;;;5.53;;
20865;SDS011;10593;48.398;10.698;2022-12-07T15:43:50;5.43;;;4.93;;
20865;SDS011;10593;48.398;10.698;2022-12-07T15:46:36;6.40;;;5.17;;
20865;SDS011;10593;48.398;10.698;2022-12-07T15:49:05;5.67;;;5.10;;
20865;SDS011;10593;48.398;10.698;2022-12-07T15:51:37;5.40;;;4.90;;
20865;SDS011;10593;48.398;10.698;2022-12-07T15:54:02;4.83;;;4.33;;
20865;SDS011;10593;48.398;10.698;2022-12-07T15:56:28;6.27;;;5.73;;
20865;SDS011;10593;48.398;10.698;2022-12-07T15:58:55;7.37;;;6.40;;
20865;SDS011;10593;48.398;10.698;2022-12-07T16:01:22;7.63;;;6.87;;
20865;SDS011;10593;48.398;10.698;2022-12-07T16:03:47;6.97;;;6.27;;
20865;SDS011;10593;48.398;10.698;2022-12-07T16:06:17;6.90;;;6.20;;
20865;SDS011;10593;48.398;10.698;2022-12-07T16:08:44;7.70;;;6.90;;
20865;SDS011;10593;48.398;10.698;2022-12-07T16:11:11;7.33;;;6.67;;
20865;SDS011;10593;48.398;10.698;2022-12-07T16:13:38;13.30;;;8.10;;
20865;SDS011;10593;48.398;10.698;2022-12-07T16:16:05;7.90;;;6.67;;
20865;SDS011;10593;48.398;10.698;2022-12-07T16:18:38;7.50;;;6.80;;
20865;SDS011;10593;48.398;10.698;2022-12-07T16:21:04;6.50;;;5.90;;
20865;SDS011;10593;48.398;10.698;2022-12-07T16:23:30;6.70;;;6.07;;
20865;SDS011;10593;48.398;10.698;2022-12-07T16:26:05;6.70;;;6.10;;
20865;SDS011;10593;48.398;10.698;2022-12-07T16:28:57;6.17;;;5.20;;
20865;SDS011;10593;48.398;10.698;2022-12-07T16:31:24;5.63;;;5.13;;
20865;SDS011;10593;48.398;10.698;2022-12-07T16:33:56;5.63;;;5.13;;
20865;SDS011;10593;48.398;10.698;2022-12-07T16:36:23;4.80;;;4.40;;
20865;SDS011;10593;48.398;10.698;2022-12-07T16:38:50;5.93;;;5.33;;
20865;SDS011;10593;48.398;10.698;2022-12-07T16:41:16;15.00;;;12.10;;
20865;SDS011;10593;48.398;10.698;2022-12-07T16:43:42;17.63;;;15.33;;
20865;SDS011;10593;48.398;10.698;2022-12-07T16:46:09;15.37;;;13.37;;
20865;SDS011;10593;48.398;10.698;2022-12-07T16:48:38;10.70;;;9.60;;
20865;SDS011;10593;48.398;10.698;2022-12-07T16:51:06;8.00;;;7.20;;
20865;SDS011;10593;48.398;10.698;2022-12-07T16:53:35;10.03;;;9.03;;
20865;SDS011;10593;48.398;10.698;2022-12-07T16:56:02;13.70;;;12.27;;
20865;SDS011;10593;48.398;10.698;2022-12-07T16:58:30;14.40;;;12.90;;
20865;SDS011;10593;48.398;10.698;2022-12-07T17:00:56;23.03;;;13.30;;